94NY weather

St Bernard Field
Union Springs, New York, United States

Public forecast

Using degrees Fahrenheit for public forecast. Weather courtesy of forecast.io.

Closest aviation weather report (METAR) to St Bernard Field

Closest report is Penn Yan Airport, 19.5 nm (36.2 km) SW. Retrieved 2019/12/10 20:53 UTC (22 minutes ago):

KPEO 102053Z AUTO 31013G19KT 10SM SCT025 BKN029 OVC036 02/M02 A2989 RMK AO2 SLP128 T00171022 53036

Closest aviation forecast (TAF) to St Bernard Field

Closest forecast is Ithaca Tompkins Regional Airport, 22.5 nm (41.7 km) SSE. Retrieved 2019/12/10 18:42 UTC (3 hours ago):

TAF KITH 101739Z 1018/1118 34008KT P6SM OVC015 FM102100 30010KT P6SM OVC025 TEMPO 1023/1103 4SM -SHSN OVC015 FM111500 23009KT P6SM BKN035